createdAt,value
2018-04-10T00:02:08.514Z,99586.14
2018-04-10T00:04:36.796Z,99576.81
2018-04-10T00:07:05.121Z,99591.81
2018-04-10T00:09:33.362Z,99587.98
2018-04-10T00:12:01.634Z,99588.31
2018-04-10T00:14:29.909Z,99593.62
2018-04-10T00:16:58.201Z,99597.78
2018-04-10T00:19:26.473Z,99603.90
2018-04-10T00:21:54.758Z,99602.91
2018-04-10T00:24:23.033Z,99603.45
2018-04-10T00:26:51.321Z,99598.06
2018-04-10T00:29:19.594Z,99597.27
2018-04-10T00:31:47.882Z,99597.41
2018-04-10T00:34:16.157Z,99585.80
2018-04-10T00:36:44.444Z,99583.25
2018-04-10T00:39:12.721Z,99588.78
2018-04-10T00:41:41.014Z,99590.05
2018-04-10T00:44:09.289Z,99587.58
2018-04-10T00:46:37.561Z,99590.03
2018-04-10T00:49:05.846Z,99594.94
2018-04-10T00:51:34.121Z,99593.31
2018-04-10T00:54:02.419Z,99588.42
2018-04-10T00:56:30.687Z,99595.80
2018-04-10T00:58:58.974Z,99586.96
2018-04-10T01:01:27.269Z,99580.73
2018-04-10T01:03:55.853Z,99577.41
2018-04-10T01:06:24.112Z,99583.58
2018-04-10T01:08:52.385Z,99581.63
2018-04-10T01:11:20.669Z,99584.31
2018-04-10T01:13:48.958Z,99585.89
2018-04-10T01:16:17.242Z,99592.61
2018-04-10T01:18:45.517Z,99592.94
2018-04-10T01:21:13.797Z,99589.27
2018-04-10T01:23:42.073Z,99595.77
2018-04-10T01:26:10.365Z,99596.97
2018-04-10T01:28:38.642Z,99593.52
2018-04-10T01:31:06.927Z,99599.16
2018-04-10T01:33:35.214Z,99595.41
2018-04-10T01:36:03.499Z,99590.54
2018-04-10T01:38:31.802Z,99584.63
2018-04-10T01:41:00.079Z,99591.48
2018-04-10T01:43:28.362Z,99586.49
2018-04-10T01:45:56.629Z,99582.32
2018-04-10T01:48:24.925Z,99581.20
2018-04-10T01:50:53.197Z,99583.20
2018-04-10T01:53:21.480Z,99576.70
2018-04-10T01:55:49.758Z,99587.77
2018-04-10T01:58:18.039Z,99587.70
2018-04-10T02:00:46.321Z,99597.02
2018-04-10T02:03:14.593Z,99599.76
2018-04-10T02:05:42.877Z,99601.86
2018-04-10T02:08:11.157Z,99600.48
2018-04-10T02:10:39.450Z,99598.27
2018-04-10T02:13:07.721Z,99597.61
2018-04-10T02:15:36.013Z,99589.14
2018-04-10T02:18:04.293Z,99594.61
2018-04-10T02:20:32.585Z,99586.42
2018-04-10T02:23:00.860Z,99577.77
2018-04-10T02:25:29.133Z,99579.66
2018-04-10T02:27:57.424Z,99580.74
2018-04-10T02:30:25.698Z,99576.15
2018-04-10T02:32:53.985Z,99577.58
2018-04-10T02:35:22.260Z,99574.52
2018-04-10T02:37:50.525Z,99582.25
2018-04-10T02:40:18.813Z,99579.24
2018-04-10T02:42:47.089Z,99578.58
2018-04-10T02:45:15.389Z,99574.06
2018-04-10T02:47:43.669Z,99583.80
2018-04-10T02:50:11.953Z,99581.11
2018-04-10T02:52:40.253Z,99579.22
2018-04-10T02:55:08.533Z,99571.48
2018-04-10T02:57:36.810Z,99570.88
2018-04-10T03:00:05.093Z,99561.02
2018-04-10T03:02:33.369Z,99569.59
2018-04-10T03:05:01.661Z,99567.27
2018-04-10T03:07:29.931Z,99570.53
2018-04-10T03:09:58.211Z,99569.42
2018-04-10T03:12:26.497Z,99585.59
2018-04-10T03:14:54.779Z,99585.78
2018-04-10T03:17:23.055Z,99590.77
2018-04-10T03:19:51.344Z,99593.58
2018-04-10T03:22:19.613Z,99592.58
2018-04-10T03:24:47.905Z,99596.80
2018-04-10T03:27:16.181Z,99596.73
2018-04-10T03:29:44.457Z,99603.16
2018-04-10T03:32:12.738Z,99598.41
2018-04-10T03:34:41.013Z,99597.05
2018-04-10T03:37:09.312Z,99598.73
2018-04-10T03:39:37.586Z,99602.09
2018-04-10T03:42:05.866Z,99600.53
2018-04-10T03:44:34.155Z,99603.33
2018-04-10T03:47:02.442Z,99603.15
2018-04-10T03:49:30.733Z,99594.58
2018-04-10T03:51:59.010Z,99595.96
2018-04-10T03:54:27.286Z,99600.31
2018-04-10T03:56:55.581Z,99599.60
2018-04-10T03:59:23.850Z,99587.20
2018-04-10T04:01:52.133Z,99596.52
2018-04-10T04:04:20.401Z,99599.67
2018-04-10T04:06:48.699Z,99593.31
2018-04-10T04:09:16.977Z,99596.59
2018-04-10T04:11:45.269Z,99595.77
2018-04-10T04:14:13.549Z,99588.20
2018-04-10T04:16:53.542Z,99591.88
2018-04-10T04:19:33.588Z,99582.37
2018-04-10T04:22:13.714Z,99579.14
2018-04-10T04:24:42.012Z,99573.79
2018-04-10T04:27:10.262Z,99585.02
2018-04-10T04:29:38.544Z,99581.73
2018-04-10T04:32:06.817Z,99591.27
2018-04-10T04:34:35.101Z,99595.52
2018-04-10T04:37:03.378Z,99592.80
2018-04-10T04:39:31.661Z,99590.80
2018-04-10T04:41:59.945Z,99590.44
2018-04-10T04:44:28.234Z,99594.88
2018-04-10T04:46:56.510Z,99591.41
2018-04-10T04:49:24.782Z,99593.03
2018-04-10T04:51:53.070Z,99589.97
2018-04-10T04:54:21.349Z,99595.23
2018-04-10T04:56:49.630Z,99600.79
2018-04-10T04:59:17.906Z,99598.73
2018-04-10T05:01:46.204Z,99595.94
2018-04-10T05:04:15.263Z,99603.70
2018-04-10T05:06:43.561Z,99600.99
2018-04-10T05:09:11.845Z,99607.83
2018-04-10T05:11:40.134Z,99602.55
2018-04-10T05:14:08.401Z,99608.84
2018-04-10T05:16:36.677Z,99607.64
2018-04-10T05:19:04.962Z,99615.09
2018-04-10T05:21:33.233Z,99624.02
2018-04-10T05:24:01.626Z,99622.30
2018-04-10T05:26:29.905Z,99617.94
2018-04-10T05:28:58.182Z,99614.59
2018-04-10T05:31:26.461Z,99616.97
2018-04-10T05:33:54.749Z,99617.23
2018-04-10T05:36:23.039Z,99610.19
2018-04-10T05:38:51.316Z,99613.98
2018-04-10T05:41:19.613Z,99612.72
2018-04-10T05:43:47.885Z,99611.12
2018-04-10T05:46:16.163Z,99612.00
2018-04-10T05:48:44.449Z,99619.69
2018-04-10T05:51:12.729Z,99625.23
2018-04-10T05:53:41.014Z,99630.26
2018-04-10T05:56:09.289Z,99629.52
2018-04-10T05:58:37.609Z,99640.82
2018-04-10T06:01:05.850Z,99637.97
2018-04-10T06:03:34.138Z,99639.71
2018-04-10T06:06:02.411Z,99640.88
2018-04-10T06:08:30.721Z,99652.14
2018-04-10T06:10:59.022Z,99650.07
2018-04-10T06:13:27.283Z,99653.87
2018-04-10T06:15:55.573Z,99657.27
2018-04-10T06:18:23.849Z,99661.39
2018-04-10T06:20:52.137Z,99660.30
2018-04-10T06:23:20.413Z,99656.84
2018-04-10T06:25:48.696Z,99658.80
2018-04-10T06:28:16.978Z,99663.09
2018-04-10T06:30:45.250Z,99672.05
2018-04-10T06:33:13.585Z,99680.98
2018-04-10T06:35:41.865Z,99683.56
2018-04-10T06:38:10.157Z,99685.53
2018-04-10T06:40:38.448Z,99686.61
2018-04-10T06:43:06.729Z,99688.45
2018-04-10T06:45:35.038Z,99696.12
2018-04-10T06:48:03.307Z,99689.97
2018-04-10T06:50:31.598Z,99691.52
2018-04-10T06:53:00.789Z,99696.58
2018-04-10T06:55:29.062Z,99701.25
2018-04-10T06:57:57.344Z,99701.34
2018-04-10T07:00:26.420Z,99696.73
2018-04-10T07:02:54.705Z,99709.93
2018-04-10T07:05:22.977Z,99708.41
2018-04-10T07:07:51.266Z,99712.92
2018-04-10T07:10:19.549Z,99712.57
2018-04-10T07:12:47.843Z,99716.59
2018-04-10T07:15:16.118Z,99716.23
2018-04-10T07:17:44.410Z,99719.60
2018-04-10T07:20:12.686Z,99720.74
2018-04-10T07:22:40.952Z,99720.54
2018-04-10T07:25:09.242Z,99712.70
2018-04-10T07:27:37.517Z,99705.11
2018-04-10T07:30:05.801Z,99702.08
2018-04-10T07:32:34.079Z,99705.64
2018-04-10T07:35:02.370Z,99701.09
2018-04-10T07:37:30.650Z,99698.41
2018-04-10T07:39:58.917Z,99704.52
2018-04-10T07:42:27.197Z,99701.22
2018-04-10T07:44:55.480Z,99697.47
2018-04-10T07:47:23.754Z,99706.13
2018-04-10T07:49:52.018Z,99709.67
2018-04-10T07:52:20.308Z,99715.77
2018-04-10T07:54:49.566Z,99713.50
2018-04-10T07:57:17.837Z,99712.37
2018-04-10T07:59:46.122Z,99714.83
2018-04-10T08:02:14.510Z,99713.94
2018-04-10T08:04:42.827Z,99710.06
2018-04-10T08:07:11.062Z,99710.97
2018-04-10T08:09:39.345Z,99717.66
2018-04-10T08:12:07.617Z,99716.51
2018-04-10T08:14:35.922Z,99711.72
2018-04-10T08:17:04.187Z,99725.58
2018-04-10T08:19:32.459Z,99723.89
2018-04-10T08:22:00.742Z,99734.17
2018-04-10T08:24:29.008Z,99740.17
2018-04-10T08:26:57.284Z,99740.55
2018-04-10T08:29:25.562Z,99734.73
2018-04-10T08:31:53.848Z,99734.04
2018-04-10T08:34:22.112Z,99736.14
2018-04-10T08:36:50.382Z,99736.23
2018-04-10T08:39:18.662Z,99735.99
2018-04-10T08:41:47.729Z,99738.16
2018-04-10T08:44:16.009Z,99735.36
2018-04-10T08:46:44.282Z,99743.56
2018-04-10T08:49:12.565Z,99747.96
2018-04-10T08:51:40.837Z,99750.35
2018-04-10T08:54:09.110Z,99752.58
2018-04-10T08:56:37.389Z,99746.84
2018-04-10T08:59:05.661Z,99745.04
2018-04-10T09:01:33.946Z,99740.72
2018-04-10T09:04:02.474Z,99744.03
2018-04-10T09:06:30.746Z,99741.40
2018-04-10T09:08:59.014Z,99752.68
2018-04-10T09:11:27.282Z,99741.25
2018-04-10T09:13:55.557Z,99746.23
2018-04-10T09:16:23.826Z,99744.81
2018-04-10T09:18:52.133Z,99746.52
2018-04-10T09:21:20.406Z,99741.81
2018-04-10T09:23:48.689Z,99748.16
2018-04-10T09:26:16.957Z,99739.51
2018-04-10T09:28:45.230Z,99746.89
2018-04-10T09:31:13.501Z,99742.84
2018-04-10T09:33:41.769Z,99746.48
2018-04-10T09:36:10.041Z,99742.70
2018-04-10T09:38:38.302Z,99741.20
2018-04-10T09:41:06.619Z,99749.86
2018-04-10T09:43:34.938Z,99742.00
2018-04-10T09:46:03.161Z,99741.83
2018-04-10T09:48:31.436Z,99742.80
2018-04-10T09:50:59.700Z,99738.58
2018-04-10T09:53:27.974Z,99740.47
2018-04-10T09:55:56.234Z,99744.76
2018-04-10T09:58:24.550Z,99748.97
2018-04-10T10:00:52.794Z,99748.50
2018-04-10T10:03:21.053Z,99744.70
2018-04-10T10:05:49.331Z,99748.30
2018-04-10T10:08:17.594Z,99751.38
2018-04-10T10:10:46.710Z,99756.92
2018-04-10T10:13:14.973Z,99754.08
2018-04-10T10:15:43.241Z,99756.05
2018-04-10T10:18:11.502Z,99765.09
2018-04-10T10:20:39.789Z,99756.45
2018-04-10T10:23:08.054Z,99757.12
2018-04-10T10:25:36.320Z,99759.68
2018-04-10T10:28:04.616Z,99755.13
2018-04-10T10:30:32.869Z,99761.79
2018-04-10T10:33:01.154Z,99766.27
2018-04-10T10:35:29.415Z,99762.34
2018-04-10T10:37:57.689Z,99759.13
2018-04-10T10:40:25.957Z,99766.64
2018-04-10T10:42:54.213Z,99759.55
2018-04-10T10:45:22.497Z,99757.28
2018-04-10T10:47:50.762Z,99760.45
2018-04-10T10:50:20.382Z,99752.94
2018-04-10T10:52:48.637Z,99760.44
2018-04-10T10:55:16.931Z,99756.78
2018-04-10T10:57:45.185Z,99754.12
2018-04-10T11:00:13.461Z,99757.26
2018-04-10T11:02:41.730Z,99748.72
2018-04-10T11:05:10.001Z,99749.35
2018-04-10T11:07:38.266Z,99744.31
2018-04-10T11:10:06.536Z,99742.80
2018-04-10T11:12:34.822Z,99735.06
2018-04-10T11:15:03.093Z,99737.67
2018-04-10T11:17:31.377Z,99733.00
2018-04-10T11:19:59.642Z,99730.78
2018-04-10T11:22:27.913Z,99726.18
2018-04-10T11:24:56.174Z,99720.72
2018-04-10T11:27:24.457Z,99719.94
2018-04-10T11:29:52.722Z,99715.11
2018-04-10T11:32:20.994Z,99717.17
2018-04-10T11:34:49.267Z,99708.20
2018-04-10T11:37:17.534Z,99709.74
2018-04-10T11:39:45.810Z,99707.98
2018-04-10T11:42:14.073Z,99708.64
2018-04-10T11:44:42.347Z,99706.04
2018-04-10T11:47:10.610Z,99706.67
2018-04-10T11:49:38.886Z,99693.50
2018-04-10T11:52:07.154Z,99695.86
2018-04-10T11:54:35.480Z,99693.55
2018-04-10T11:57:04.105Z,99692.82
2018-04-10T11:59:32.374Z,99699.66
2018-04-10T12:02:00.655Z,99702.11
2018-04-10T12:04:28.917Z,99702.72
2018-04-10T12:06:57.186Z,99699.20
2018-04-10T12:09:25.463Z,99704.22
2018-04-10T12:11:53.729Z,99707.78
2018-04-10T12:14:22.012Z,99710.62
2018-04-10T12:16:50.266Z,99698.83
2018-04-10T12:19:18.541Z,99705.13
2018-04-10T12:21:46.801Z,99695.89
2018-04-10T12:24:15.090Z,99691.33
2018-04-10T12:26:43.349Z,99686.19
2018-04-10T12:29:11.606Z,99685.77
2018-04-10T12:31:39.874Z,99693.19
2018-04-10T12:34:08.239Z,99686.70
2018-04-10T12:36:36.540Z,99675.48
2018-04-10T12:39:07.658Z,99670.67
2018-04-10T12:41:35.933Z,99680.42
2018-04-10T12:44:04.193Z,99676.34
2018-04-10T12:46:32.477Z,99675.14
2018-04-10T12:49:00.742Z,99669.88
2018-04-10T12:51:29.025Z,99677.33
2018-04-10T12:53:57.290Z,99667.09
2018-04-10T12:56:25.553Z,99652.36
2018-04-10T12:58:53.829Z,99656.33
2018-04-10T13:01:22.089Z,99648.05
2018-04-10T13:03:50.359Z,99646.62
2018-04-10T13:06:18.623Z,99647.44
2018-04-10T13:08:46.898Z,99641.45
2018-04-10T13:11:15.168Z,99638.13
2018-04-10T13:13:43.491Z,99631.59
2018-04-10T13:16:11.753Z,99622.71
2018-04-10T13:18:40.018Z,99622.51
2018-04-10T13:21:08.297Z,99614.59
2018-04-10T13:23:36.565Z,99625.48
2018-04-10T13:26:04.838Z,99631.70
2018-04-10T13:28:33.101Z,99624.28
2018-04-10T13:31:02.301Z,99617.12
2018-04-10T13:33:30.565Z,99626.28
2018-04-10T13:35:58.842Z,99621.72
2018-04-10T13:38:27.106Z,99624.28
2018-04-10T13:40:55.694Z,99627.91
2018-04-10T13:43:23.953Z,99626.58
2018-04-10T13:45:52.221Z,99631.06
2018-04-10T13:48:20.497Z,99630.95
2018-04-10T13:50:48.764Z,99620.33
2018-04-10T13:53:17.035Z,99621.67
2018-04-10T13:55:45.297Z,99621.84
2018-04-10T13:58:13.574Z,99614.00
2018-04-10T14:00:41.846Z,99612.84
2018-04-10T14:03:10.107Z,99607.98
2018-04-10T14:05:38.389Z,99604.41
2018-04-10T14:08:06.663Z,99599.89
2018-04-10T14:10:34.931Z,99606.00
2018-04-10T14:13:03.202Z,99603.68
2018-04-10T14:15:31.493Z,99601.27
2018-04-10T14:17:59.760Z,99591.96
2018-04-10T14:20:28.021Z,99593.80
2018-04-10T14:22:56.295Z,99594.63
2018-04-10T14:25:24.553Z,99586.70
2018-04-10T14:27:52.826Z,99588.64
2018-04-10T14:30:21.086Z,99584.41
2018-04-10T14:32:49.358Z,99587.73
2018-04-10T14:35:17.686Z,99589.09
2018-04-10T14:37:45.999Z,99584.15
2018-04-10T14:40:14.258Z,99581.55
2018-04-10T14:42:42.540Z,99577.00
2018-04-10T14:45:10.807Z,99569.63
2018-04-10T14:47:39.065Z,99582.03
2018-04-10T14:50:07.341Z,99580.17
2018-04-10T14:52:35.613Z,99578.57
2018-04-10T14:55:03.881Z,99573.10
2018-04-10T14:57:32.146Z,99572.94
2018-04-10T15:00:00.418Z,99572.12
2018-04-10T15:02:28.682Z,99575.03
2018-04-10T15:04:56.960Z,99574.38
2018-04-10T15:07:25.221Z,99574.27
2018-04-10T15:09:53.501Z,99577.34
2018-04-10T15:12:21.757Z,99577.02
2018-04-10T15:14:50.383Z,99574.97
2018-04-10T15:17:18.650Z,99573.99
2018-04-10T15:19:46.906Z,99574.73
2018-04-10T15:22:15.181Z,99568.47
2018-04-10T15:24:43.441Z,99565.38
2018-04-10T15:27:11.714Z,99563.44
2018-04-10T15:29:39.972Z,99557.19
2018-04-10T15:32:08.246Z,99555.94
2018-04-10T15:34:36.512Z,99558.55
2018-04-10T15:37:04.795Z,99552.25
2018-04-10T15:39:33.073Z,99553.23
2018-04-10T15:42:01.382Z,99546.23
2018-04-10T15:44:29.657Z,99549.45
2018-04-10T15:46:57.942Z,99545.50
2018-04-10T15:49:26.189Z,99546.23
2018-04-10T15:51:54.455Z,99550.04
2018-04-10T15:54:23.644Z,99549.07
2018-04-10T15:56:51.902Z,99542.66
2018-04-10T15:59:20.174Z,99550.00
2018-04-10T16:01:49.318Z,99550.35
2018-04-10T16:04:17.582Z,99554.08
2018-04-10T16:06:45.841Z,99547.59
2018-04-10T16:09:14.131Z,99551.86
2018-04-10T16:11:42.387Z,99554.03
2018-04-10T16:14:10.653Z,99562.88
2018-04-10T16:16:38.929Z,99566.75
2018-04-10T16:19:07.189Z,99569.55
2018-04-10T16:21:35.464Z,99575.95
2018-04-10T16:24:03.725Z,99578.16
2018-04-10T16:26:31.989Z,99569.05
2018-04-10T16:29:00.249Z,99567.74
2018-04-10T16:31:28.525Z,99564.20
2018-04-10T16:33:56.818Z,99561.31
2018-04-10T16:36:25.061Z,99561.72
2018-04-10T16:38:53.328Z,99559.02
2018-04-10T16:41:21.590Z,99568.80
2018-04-10T16:43:49.861Z,99574.54
2018-04-10T16:46:18.125Z,99579.25
2018-04-10T16:48:46.398Z,99577.89
2018-04-10T16:51:14.661Z,99585.02
2018-04-10T16:53:42.934Z,99586.80
2018-04-10T16:56:11.209Z,99585.02
2018-04-10T16:58:39.478Z,99584.68
2018-04-10T17:01:07.756Z,99580.94
2018-04-10T17:03:36.014Z,99585.67
2018-04-10T17:06:04.290Z,99585.67
2018-04-10T17:08:32.565Z,99584.95
2018-04-10T17:11:00.845Z,99577.02
2018-04-10T17:13:29.110Z,99571.64
2018-04-10T17:15:57.944Z,99576.34
2018-04-10T17:18:26.208Z,99577.66
2018-04-10T17:20:54.473Z,99585.76
2018-04-10T17:23:22.753Z,99582.96
2018-04-10T17:25:51.043Z,99588.22
2018-04-10T17:28:19.301Z,99595.28
2018-04-10T17:30:47.565Z,99604.98
2018-04-10T17:33:15.837Z,99605.65
2018-04-10T17:35:44.101Z,99601.30
2018-04-10T17:38:12.380Z,99600.69
2018-04-10T17:40:40.655Z,99605.52
2018-04-10T17:43:08.925Z,99597.09
2018-04-10T17:45:37.217Z,99594.27
2018-04-10T17:48:05.501Z,99602.09
2018-04-10T17:50:33.766Z,99615.62
2018-04-10T17:53:02.054Z,99618.09
2018-04-10T17:55:30.322Z,99627.63
2018-04-10T17:57:58.583Z,99625.11
2018-04-10T18:00:26.867Z,99629.69
2018-04-10T18:02:55.141Z,99628.73
2018-04-10T18:05:23.410Z,99625.91
2018-04-10T18:07:51.688Z,99622.55
2018-04-10T18:10:19.986Z,99625.70
2018-04-10T18:12:48.245Z,99628.55
2018-04-10T18:15:16.520Z,99637.77
2018-04-10T18:17:44.785Z,99650.88
2018-04-10T18:20:13.054Z,99664.66
2018-04-10T18:22:41.333Z,99687.36
2018-04-10T18:25:09.601Z,99690.73
2018-04-10T18:27:37.880Z,99704.34
2018-04-10T18:30:06.145Z,99707.95
2018-04-10T18:32:34.430Z,99724.97
2018-04-10T18:35:02.708Z,99731.73
2018-04-10T18:37:30.985Z,99734.30
2018-04-10T18:39:59.261Z,99741.58
2018-04-10T18:42:27.586Z,99751.25
2018-04-10T18:44:55.857Z,99758.41
2018-04-10T18:47:24.124Z,99773.72
2018-04-10T18:49:52.417Z,99775.53
2018-04-10T18:52:20.654Z,99774.75
2018-04-10T18:54:48.937Z,99778.73
2018-04-10T18:57:17.212Z,99789.97
2018-04-10T18:59:45.479Z,99792.04
2018-04-10T19:02:13.753Z,99805.63
2018-04-10T19:04:42.025Z,99801.78
2018-04-10T19:07:10.305Z,99800.51
2018-04-10T19:09:38.573Z,99800.47
2018-04-10T19:12:06.861Z,99802.45
2018-04-10T19:14:35.129Z,99790.23
2018-04-10T19:17:03.405Z,99790.73
2018-04-10T19:19:31.687Z,99781.59
2018-04-10T19:21:59.974Z,99789.06
2018-04-10T19:24:28.233Z,99795.80
2018-04-10T19:26:56.547Z,99812.53
2018-04-10T19:29:25.021Z,99825.84
2018-04-10T19:31:53.288Z,99829.44
2018-04-10T19:34:21.557Z,99832.01
2018-04-10T19:36:49.850Z,99840.41
2018-04-10T19:39:18.125Z,99840.87
2018-04-10T19:41:46.410Z,99840.56
2018-04-10T19:44:14.680Z,99860.03
2018-04-10T19:46:42.951Z,99863.89
2018-04-10T19:49:11.236Z,99866.58
2018-04-10T19:51:39.513Z,99873.47
2018-04-10T19:54:08.077Z,99866.47
2018-04-10T19:56:36.342Z,99856.63
2018-04-10T19:59:04.618Z,99864.95
2018-04-10T20:01:32.895Z,99863.81
2018-04-10T20:04:01.162Z,99855.52
2018-04-10T20:06:29.480Z,99851.44
2018-04-10T20:08:57.741Z,99861.30
2018-04-10T20:11:26.029Z,99866.00
2018-04-10T20:13:54.293Z,99859.09
2018-04-10T20:16:22.562Z,99859.45
2018-04-10T20:18:50.861Z,99857.72
2018-04-10T20:21:19.131Z,99851.50
2018-04-10T20:23:47.405Z,99857.83
2018-04-10T20:26:15.706Z,99854.64
2018-04-10T20:28:43.960Z,99855.23
2018-04-10T20:31:12.501Z,99853.91
2018-04-10T20:33:40.766Z,99855.49
2018-04-10T20:36:09.029Z,99856.54
2018-04-10T20:38:37.302Z,99861.03
2018-04-10T20:41:05.578Z,99867.97
2018-04-10T20:43:33.887Z,99871.39
2018-04-10T20:46:02.162Z,99865.09
2018-04-10T20:48:30.450Z,99879.52
2018-04-10T20:50:58.721Z,99878.30
2018-04-10T20:53:26.990Z,99886.44
2018-04-10T20:55:55.266Z,99888.73
2018-04-10T20:58:23.533Z,99893.27
2018-04-10T21:00:51.809Z,99896.73
2018-04-10T21:03:20.078Z,99908.55
2018-04-10T21:05:48.350Z,99911.80
2018-04-10T21:08:16.637Z,99912.63
2018-04-10T21:10:44.909Z,99919.65
2018-04-10T21:13:13.177Z,99917.84
2018-04-10T21:15:41.447Z,99912.79
2018-04-10T21:18:09.713Z,99914.27
2018-04-10T21:20:38.005Z,99919.34
2018-04-10T21:23:06.266Z,99917.08
2018-04-10T21:25:34.529Z,99919.78
2018-04-10T21:28:02.821Z,99921.99
2018-04-10T21:30:31.082Z,99924.75
2018-04-10T21:32:59.365Z,99923.07
2018-04-10T21:35:27.633Z,99919.64
2018-04-10T21:37:55.902Z,99924.91
2018-04-10T21:40:24.191Z,99923.48
2018-04-10T21:42:57.937Z,99923.64
2018-04-10T21:45:26.221Z,99919.47
2018-04-10T21:47:54.492Z,99913.94
2018-04-10T21:50:22.773Z,99914.48
2018-04-10T21:52:51.038Z,99909.25
2018-04-10T21:55:19.330Z,99903.58
2018-04-10T21:57:47.606Z,99907.55
2018-04-10T22:00:15.891Z,99903.09
2018-04-10T22:02:44.175Z,99891.77
2018-04-10T22:05:12.442Z,99891.58
2018-04-10T22:07:40.713Z,99889.96
2018-04-10T22:10:08.988Z,99886.16
2018-04-10T22:12:37.264Z,99884.71
2018-04-10T22:15:05.794Z,99885.59
2018-04-10T22:17:34.371Z,99887.09
2018-04-10T22:20:02.644Z,99894.58
2018-04-10T22:22:30.913Z,99878.42
2018-04-10T22:24:59.177Z,99889.00
2018-04-10T22:27:27.470Z,99882.94
2018-04-10T22:29:55.737Z,99888.73
2018-04-10T22:32:23.998Z,99880.41
2018-04-10T22:34:52.236Z,99871.03
2018-04-10T22:37:20.506Z,99879.78
2018-04-10T22:39:48.798Z,99883.18
2018-04-10T22:42:17.059Z,99878.41
2018-04-10T22:44:45.337Z,99866.27
2018-04-10T22:47:13.611Z,99864.34
2018-04-10T22:49:41.869Z,99852.56
2018-04-10T22:52:10.150Z,99850.80
2018-04-10T22:54:38.413Z,99853.97
2018-04-10T22:57:06.678Z,99840.34
2018-04-10T22:59:34.950Z,99836.09
2018-04-10T23:02:03.218Z,99840.38
2018-04-10T23:04:31.495Z,99840.33
2018-04-10T23:06:59.761Z,99834.39
2018-04-10T23:09:28.039Z,99828.66
2018-04-10T23:11:56.314Z,99836.39
2018-04-10T23:14:24.577Z,99831.13
2018-04-10T23:16:52.862Z,99838.45
2018-04-10T23:19:21.128Z,99834.67
2018-04-10T23:21:49.403Z,99841.53
2018-04-10T23:24:17.695Z,99848.58
2018-04-10T23:26:45.978Z,99849.83
2018-04-10T23:29:14.255Z,99856.42
2018-04-10T23:31:42.521Z,99852.39
2018-04-10T23:34:10.782Z,99859.59
2018-04-10T23:36:39.086Z,99857.75
2018-04-10T23:39:07.355Z,99860.37
2018-04-10T23:41:35.622Z,99874.82
2018-04-10T23:44:03.899Z,99873.43
2018-04-10T23:46:32.158Z,99874.47
2018-04-10T23:49:00.423Z,99877.38
2018-04-10T23:51:28.709Z,99882.27
2018-04-10T23:53:56.969Z,99876.70
2018-04-10T23:56:25.238Z,99874.45
2018-04-10T23:58:53.510Z,99877.66
